Time;durP1;ratioP1;P1;durP2;ratioP2;P2;SDS_P1;SDS_P2;PMS_P1;PMS_P2;Temp;Humidity;BMP_temperature;BMP_pressure;BME280_temperature;BME280_humidity;BME280_pressure;Samples;Min_cycle;Max_cycle;Signal;HPM_P1;HPM_P2
2022/03/19 00:01:35;;;;;;;58.70;25.58;;;;;;;-2.50;79.22;102269.69;5056049;28;20075;-78
2022/03/19 00:04:19;;;;;;;60.75;27.20;;;;;;;-2.46;80.27;102266.56;5055968;28;20037;-78
2022/03/19 00:07:04;;;;;;;60.53;27.88;;;;;;;-2.42;81.19;102258.25;5056904;28;20107;-78
2022/03/19 00:09:48;;;;;;;69.78;30.25;;;;;;;-2.47;84.85;102257.97;5056110;28;20080;-78
2022/03/19 00:12:32;;;;;;;75.80;31.25;;;;;;;-2.47;86.97;102254.47;5041686;28;20041;-78
2022/03/19 00:15:16;;;;;;;74.95;30.27;;;;;;;-2.45;84.41;102246.09;5056792;28;20041;-78
2022/03/19 00:18:01;;;;;;;69.50;29.85;;;;;;;-2.38;81.53;102255.97;5041956;28;20055;-78
2022/03/19 00:20:46;;;;;;;69.20;27.27;;;;;;;-2.43;82.38;102252.25;5055821;28;20087;-78
2022/03/19 00:23:31;;;;;;;71.65;27.15;;;;;;;-2.42;82.52;102256.56;5056510;28;20044;-78
2022/03/19 00:26:16;;;;;;;70.18;29.67;;;;;;;-2.33;80.60;102264.00;5055626;28;20053;-78
2022/03/19 00:29:01;;;;;;;60.15;25.10;;;;;;;-2.36;79.51;102251.84;5056380;28;20056;-78
2022/03/19 00:31:45;;;;;;;64.13;27.92;;;;;;;-2.23;78.99;102260.38;5056337;28;20037;-78
2022/03/19 00:34:31;;;;;;;62.78;25.90;;;;;;;-2.13;77.21;102262.75;5056145;28;20116;-78
2022/03/19 00:37:15;;;;;;;60.85;25.33;;;;;;;-2.14;77.85;102258.41;5056809;28;20083;-78
2022/03/19 00:39:59;;;;;;;51.42;23.38;;;;;;;-2.08;77.20;102260.44;5056175;28;20052;-78
2022/03/19 00:42:44;;;;;;;54.25;24.10;;;;;;;-2.02;77.85;102255.72;5041221;28;20041;-78
2022/03/19 00:45:28;;;;;;;62.53;25.13;;;;;;;-1.89;76.08;102253.16;5055102;28;20107;-78
2022/03/19 00:48:14;;;;;;;48.45;22.13;;;;;;;-1.88;74.86;102236.97;5055029;28;20091;-78
2022/03/19 00:50:59;;;;;;;57.83;24.63;;;;;;;-1.77;74.91;102242.78;5059446;28;20055;-78
2022/03/19 00:53:43;;;;;;;57.70;24.52;;;;;;;-1.72;75.22;102247.41;5058995;28;20036;-78
2022/03/19 00:56:27;;;;;;;52.72;22.92;;;;;;;-1.69;74.10;102244.13;5059075;28;20049;-78
2022/03/19 00:59:11;;;;;;;57.75;25.15;;;;;;;-1.66;75.08;102249.47;5059799;28;20049;-78
2022/03/19 01:01:56;;;;;;;69.22;29.23;;;;;;;-1.55;74.32;102255.31;5058928;28;20074;-79
2022/03/19 01:04:40;;;;;;;69.70;26.30;;;;;;;-1.53;73.83;102239.16;5044806;28;20053;-78
2022/03/19 01:07:25;;;;;;;55.13;24.40;;;;;;;-1.40;73.15;102248.53;5058779;28;20067;-78
2022/03/19 01:10:12;;;;;;;53.90;23.88;;;;;;;-1.33;71.97;102240.41;5059529;28;20049;-78
2022/03/19 01:12:58;;;;;;;53.97;22.75;;;;;;;-1.29;71.58;102236.34;5059626;28;20037;-78
2022/03/19 01:15:42;;;;;;;57.67;25.55;;;;;;;-1.34;71.86;102236.06;5044669;28;20386;-78
2022/03/19 01:18:26;;;;;;;65.80;26.00;;;;;;;-1.30;71.14;102243.19;5058658;28;20131;-78
2022/03/19 01:21:11;;;;;;;77.95;30.52;;;;;;;-1.31;70.69;102235.34;5059323;28;20068;-78
2022/03/19 01:23:55;;;;;;;77.78;30.48;;;;;;;-1.22;70.34;102228.22;5058530;28;20102;-78
2022/03/19 01:26:41;;;;;;;78.50;30.42;;;;;;;-1.15;69.37;102227.78;5076278;28;20384;-78
2022/03/19 01:29:26;;;;;;;64.90;26.88;;;;;;;-1.12;68.74;102233.13;5064417;28;20036;-78
2022/03/19 01:32:11;;;;;;;61.92;25.58;;;;;;;-1.14;68.94;102223.53;5064453;28;20037;-78
2022/03/19 01:34:55;;;;;;;50.42;24.77;;;;;;;-1.06;68.50;102235.19;5050078;28;20036;-79
2022/03/19 01:37:40;;;;;;;51.67;23.55;;;;;;;-1.04;68.20;102234.47;5064133;28;20106;-78
2022/03/19 01:40:25;;;;;;;53.53;24.50;;;;;;;-1.02;68.05;102229.41;5064259;28;20041;-78
2022/03/19 01:43:09;;;;;;;53.70;22.85;;;;;;;-0.97;67.78;102222.88;5064200;28;20441;-78
2022/03/19 01:45:54;;;;;;;49.97;22.15;;;;;;;-1.00;67.64;102226.16;5063926;28;20041;-78
2022/03/19 01:48:39;;;;;;;47.25;21.15;;;;;;;-0.99;67.83;102221.88;5063976;28;20036;-78
2022/03/19 01:51:23;;;;;;;58.97;23.52;;;;;;;-1.03;67.97;102237.94;5063879;28;20353;-78
2022/03/19 01:54:07;;;;;;;49.35;23.85;;;;;;;-1.06;68.17;102228.34;5063859;28;20040;-78
2022/03/19 01:56:55;;;;;;;44.72;20.25;;;;;;;-1.03;67.51;102218.25;5078535;28;20041;-78
2022/03/19 01:59:41;;;;;;;51.83;22.75;;;;;;;-1.08;67.80;102216.19;5049743;28;20094;-78
2022/03/19 02:02:29;;;;;;;47.83;21.27;;;;;;;-1.03;67.53;102212.22;5062861;28;20040;-78
2022/03/19 02:05:17;;;;;;;49.33;21.73;;;;;;;-1.03;67.68;102209.63;5063703;28;20170;-78
2022/03/19 02:08:01;;;;;;;52.70;21.60;;;;;;;-1.11;67.90;102204.00;5078433;28;20364;-78
2022/03/19 02:10:46;;;;;;;53.55;23.13;;;;;;;-1.09;67.63;102193.84;5078399;28;20047;-78
2022/03/19 02:13:31;;;;;;;53.00;20.98;;;;;;;-1.10;68.52;102194.63;5049555;28;20041;-78
2022/03/19 02:16:15;;;;;;;48.83;20.73;;;;;;;-1.09;68.12;102193.84;5078411;28;20040;-78
2022/03/19 02:19:00;;;;;;;49.03;22.38;;;;;;;-1.07;68.19;102197.38;5078268;28;20057;-78
2022/03/19 02:21:47;;;;;;;52.70;22.05;;;;;;;-1.09;68.71;102194.72;5063472;28;20044;-78
2022/03/19 02:27:35;;;;;;;56.08;25.65;;;;;;;-0.98;67.71;102190.19;5078002;28;20040;-78
2022/03/19 02:30:20;;;;;;;65.40;25.48;;;;;;;-0.87;67.33;102196.88;5063178;28;20052;-78
2022/03/19 02:33:06;;;;;;;63.92;27.05;;;;;;;-0.81;67.12;102202.41;5078092;28;20055;-81
2022/03/19 02:35:50;;;;;;;54.30;24.05;;;;;;;-0.73;66.86;102211.44;5077823;28;20424;-81
2022/03/19 02:38:35;;;;;;;56.03;24.05;;;;;;;-0.73;66.79;102203.72;5063070;28;20036;-81
2022/03/19 02:41:20;;;;;;;49.47;23.42;;;;;;;-0.67;67.08;102202.31;5063200;28;20048;-81
2022/03/19 02:44:06;;;;;;;48.17;21.55;;;;;;;-0.59;66.95;102206.22;5062986;28;20086;-81
2022/03/19 02:46:53;;;;;;;53.00;22.65;;;;;;;-0.56;67.59;102203.81;5077728;28;20040;-82
2022/03/19 02:49:37;;;;;;;52.55;22.08;;;;;;;-0.51;67.10;102202.41;5062842;28;20040;-82
2022/03/19 02:52:22;;;;;;;47.90;20.85;;;;;;;-0.56;67.64;102191.81;5062780;28;20048;-81
2022/03/19 02:55:06;;;;;;;48.47;22.85;;;;;;;-0.48;66.69;102200.91;5062929;28;20041;-81
2022/03/19 02:57:51;;;;;;;51.10;22.95;;;;;;;-0.42;66.16;102202.03;5062689;28;20044;-82
2022/03/19 03:00:36;;;;;;;52.45;23.70;;;;;;;-0.41;65.89;102209.88;5077509;28;20036;-81
2022/03/19 03:03:21;;;;;;;46.17;22.55;;;;;;;-0.34;65.36;102203.38;5062574;28;20052;-82
2022/03/19 03:06:05;;;;;;;49.10;22.08;;;;;;;-0.36;65.50;102208.41;5077340;28;20049;-82
2022/03/19 03:08:50;;;;;;;45.53;20.80;;;;;;;-0.35;65.51;102206.75;5077206;28;20330;-81
2022/03/19 03:11:36;;;;;;;51.00;22.10;;;;;;;-0.34;66.61;102201.69;5077219;28;20043;-82
2022/03/19 03:14:20;;;;;;;51.92;23.50;;;;;;;-0.36;67.20;102210.13;5077221;28;20048;-82
2022/03/19 03:17:07;;;;;;;55.67;24.05;;;;;;;-0.37;67.10;102210.94;5077487;28;20059;-81
2022/03/19 03:19:52;;;;;;;50.55;23.60;;;;;;;-0.41;68.24;102208.97;5062177;28;20056;-82
2022/03/19 03:22:37;;;;;;;56.70;25.00;;;;;;;-0.44;67.71;102203.66;5062137;28;20071;-81
2022/03/19 03:25:22;;;;;;;52.97;24.45;;;;;;;-0.52;67.27;102203.19;5076699;28;20049;-82
2022/03/19 03:28:07;;;;;;;52.60;23.52;;;;;;;-0.52;66.94;102211.81;5077084;28;20036;-81
2022/03/19 03:30:52;;;;;;;51.05;23.35;;;;;;;-0.49;66.64;102206.84;5076828;28;20047;-81
2022/03/19 03:33:37;;;;;;;48.75;22.60;;;;;;;-0.52;66.56;102200.63;5061928;28;20059;-82
2022/03/19 03:36:22;;;;;;;49.42;22.80;;;;;;;-0.57;66.51;102200.38;5076766;28;20433;-82
2022/03/19 03:39:07;;;;;;;49.47;23.80;;;;;;;-0.57;66.69;102196.91;5061881;28;20425;-81
2022/03/19 03:41:54;;;;;;;59.25;25.35;;;;;;;-0.68;67.47;102193.72;5076598;28;20045;-82
2022/03/19 03:44:41;;;;;;;55.03;22.60;;;;;;;-0.66;67.46;102198.94;5076551;28;20391;-82
2022/03/19 03:47:26;;;;;;;51.78;23.85;;;;;;;-0.72;67.14;102191.75;5076637;28;20037;-81
2022/03/19 03:50:11;;;;;;;51.53;22.20;;;;;;;-0.74;66.66;102196.81;5076674;28;20044;-82
2022/03/19 03:52:56;;;;;;;53.45;25.17;;;;;;;-0.85;66.59;102208.13;5061530;28;20094;-81
2022/03/19 03:55:40;;;;;;;45.10;21.13;;;;;;;-0.79;66.93;102194.75;5061590;28;20064;-81
2022/03/19 03:58:24;;;;;;;51.38;24.05;;;;;;;-0.95;67.31;102198.09;5047523;28;20098;-81
2022/03/19 04:01:09;;;;;;;48.78;22.30;;;;;;;-0.93;67.39;102203.34;5061688;28;20048;-81
2022/03/19 04:03:54;;;;;;;52.05;22.20;;;;;;;-1.04;67.93;102203.63;5076225;28;20444;-81
2022/03/19 04:06:38;;;;;;;58.60;24.85;;;;;;;-1.21;68.71;102209.41;5061601;28;20055;-82
2022/03/19 04:09:22;;;;;;;53.50;23.00;;;;;;;-1.20;69.11;102213.78;5076108;28;20114;-81
2022/03/19 04:12:07;;;;;;;49.17;23.50;;;;;;;-1.20;68.51;102209.50;5076221;28;20444;-81
2022/03/19 04:14:52;;;;;;;47.83;21.67;;;;;;;-1.20;69.14;102208.63;5075931;28;20541;-81
2022/03/19 04:17:37;;;;;;;48.92;23.67;;;;;;;-1.36;70.33;102204.22;5076079;28;20045;-81
2022/03/19 04:20:22;;;;;;;55.03;24.75;;;;;;;-1.43;70.85;102213.25;5076075;28;20045;-81
2022/03/19 04:23:07;;;;;;;48.42;23.75;;;;;;;-1.54;71.96;102203.09;5076094;28;20399;-81
2022/03/19 04:25:51;;;;;;;52.70;24.40;;;;;;;-1.54;71.49;102216.81;5060582;28;20060;-81
2022/03/19 04:28:36;;;;;;;52.47;22.83;;;;;;;-1.60;71.80;102215.56;5076087;28;20036;-81
2022/03/19 04:31:20;;;;;;;49.38;22.70;;;;;;;-1.71;72.98;102209.75;5061284;28;20106;-81
2022/03/19 04:34:04;;;;;;;53.65;24.83;;;;;;;-1.71;72.89;102207.19;5076132;28;20120;-81
2022/03/19 04:36:49;;;;;;;53.30;23.70;;;;;;;-1.77;74.54;102207.69;5061141;28;20047;-81
2022/03/19 04:39:34;;;;;;;68.22;26.15;;;;;;;-1.72;73.14;102208.00;5075949;28;20052;-80
2022/03/19 04:42:18;;;;;;;55.75;23.13;;;;;;;-1.79;74.16;102201.53;5075922;28;20051;-81
2022/03/19 04:45:04;;;;;;;57.13;23.63;;;;;;;-1.79;74.76;102205.81;5061246;28;20445;-81
2022/03/19 04:47:49;;;;;;;54.78;25.20;;;;;;;-1.77;74.90;102217.06;5060987;28;20036;-81
2022/03/19 04:50:43;;;;;;;53.78;23.90;;;;;;;-1.80;76.04;102211.75;5046851;28;20063;-80
2022/03/19 04:53:28;;;;;;;53.47;26.90;;;;;;;-1.73;75.30;102213.91;5061069;28;20120;-81
2022/03/19 04:56:12;;;;;;;56.35;27.33;;;;;;;-1.73;76.48;102211.34;5075831;28;20348;-81
2022/03/19 04:58:59;;;;;;;52.25;24.77;;;;;;;-1.68;75.67;102208.25;5061191;28;20467;-81
2022/03/19 05:01:43;;;;;;;59.00;26.90;;;;;;;-1.66;77.50;102205.78;5061476;28;20045;-81
2022/03/19 05:04:28;;;;;;;58.42;26.88;;;;;;;-1.64;79.35;102214.47;5060990;28;20376;-81
2022/03/19 05:07:13;;;;;;;56.60;26.67;;;;;;;-1.55;79.08;102216.75;5060904;28;20045;-81
2022/03/19 05:13:00;;;;;;;59.92;28.25;;;;;;;-1.46;79.81;102207.91;5075758;28;20045;-81
2022/03/19 05:15:45;;;;;;;65.57;28.85;;;;;;;-1.42;80.59;102209.88;5047174;28;20040;-81
2022/03/19 05:18:30;;;;;;;65.63;29.17;;;;;;;-1.27;78.48;102214.16;5076241;28;20048;-81
2022/03/19 05:21:14;;;;;;;81.53;33.00;;;;;;;-1.29;79.12;102219.25;5075614;28;20048;-81
2022/03/19 05:23:59;;;;;;;67.10;28.48;;;;;;;-1.20;76.88;102212.09;5061107;28;20453;-81
2022/03/19 05:26:43;;;;;;;57.63;26.10;;;;;;;-1.11;76.16;102219.44;5060617;28;20056;-81
2022/03/19 05:29:31;;;;;;;72.47;35.10;;;;;;;-1.14;74.87;102211.53;5060761;28;20049;-81
2022/03/19 05:32:16;;;;;;;63.15;29.35;;;;;;;-1.07;75.64;102218.88;5075498;28;20425;-81
2022/03/19 05:35:02;;;;;;;54.58;27.42;;;;;;;-0.94;75.50;102223.06;5075947;28;20405;-81
2022/03/19 05:37:49;;;;;;;59.08;28.60;;;;;;;-0.98;75.78;102216.81;5078614;28;20137;-81
2022/03/19 05:40:35;;;;;;;56.15;27.40;;;;;;;-0.78;75.17;102222.25;5079742;28;20040;-81
2022/03/19 05:43:19;;;;;;;55.53;25.42;;;;;;;-0.79;74.77;102223.06;5079285;28;20044;-80
2022/03/19 05:46:04;;;;;;;56.45;25.42;;;;;;;-0.79;74.86;102225.63;5078476;28;20063;-81
2022/03/19 05:48:50;;;;;;;58.25;26.35;;;;;;;-0.68;74.23;102226.25;5048592;28;20037;-81
2022/03/19 05:51:34;;;;;;;47.97;24.23;;;;;;;-0.49;72.49;102229.13;5062342;28;20044;-81
2022/03/19 05:54:19;;;;;;;55.38;24.30;;;;;;;-0.24;72.52;102236.56;5077347;28;20374;-82
2022/03/19 05:57:04;;;;;;;48.10;23.85;;;;;;;-0.40;71.54;102232.22;5048414;28;20162;-82
2022/03/19 05:59:48;;;;;;;45.55;23.38;;;;;;;-0.28;69.72;102245.81;5077328;28;20435;-82
2022/03/19 06:02:38;;;;;;;49.55;26.48;;;;;;;-0.07;70.02;102241.00;5078191;28;20067;-82
2022/03/19 06:05:23;;;;;;;50.00;23.80;;;;;;;0.20;69.23;102241.66;5076852;28;20557;-83
2022/03/19 06:08:07;;;;;;;45.42;23.67;;;;;;;0.76;68.05;102244.69;5061993;28;20044;-81
2022/03/19 06:10:52;;;;;;;52.55;24.83;;;;;;;1.16;65.62;102248.53;5047865;28;20041;-81
2022/03/19 06:13:36;;;;;;;40.58;22.83;;;;;;;1.32;63.98;102250.22;5063118;28;20121;-83
2022/03/19 06:16:20;;;;;;;49.70;23.02;;;;;;;1.68;63.17;102221.88;5047140;28;20064;-75
2022/03/19 06:19:04;;;;;;;59.67;24.83;;;;;;;1.85;60.91;102244.28;5078512;28;20045;-75
2022/03/19 06:21:49;;;;;;;50.25;25.73;;;;;;;2.33;59.38;102241.38;5063879;28;20440;-76
2022/03/19 06:24:33;;;;;;;47.85;24.38;;;;;;;2.99;57.77;102245.28;5078288;28;20052;-76
2022/03/19 06:27:18;;;;;;;56.35;25.45;;;;;;;3.39;53.91;102236.66;5078292;28;20037;-76
2022/03/19 06:30:02;;;;;;;47.92;26.55;;;;;;;4.01;54.69;102244.38;5063776;28;20040;-76
2022/03/19 06:32:48;;;;;;;55.00;27.15;;;;;;;3.92;51.99;102248.38;5077141;28;20040;-76
2022/03/19 06:38:37;;;;;;;59.67;29.95;;;;;;;4.24;50.60;102243.59;5061297;28;20037;-76
2022/03/19 06:41:22;;;;;;;46.10;26.27;;;;;;;5.29;49.14;102246.63;5076170;28;20040;-75
2022/03/19 06:44:06;;;;;;;48.90;26.17;;;;;;;5.76;47.40;102236.97;5061408;28;20086;-75
2022/03/19 06:46:51;;;;;;;53.63;26.17;;;;;;;5.84;46.82;102238.09;5075642;28;20041;-75
2022/03/19 06:49:36;;;;;;;47.67;25.42;;;;;;;6.41;46.97;102245.16;5076510;28;20067;-76
2022/03/19 06:52:20;;;;;;;44.78;23.42;;;;;;;6.78;44.44;102248.84;5077645;28;20048;-76
2022/03/19 06:55:05;;;;;;;47.38;25.38;;;;;;;7.37;44.76;102248.75;5063272;28;20059;-76
2022/03/19 06:57:49;;;;;;;49.42;25.55;;;;;;;7.35;44.77;102251.34;5063066;28;20049;-76
2022/03/19 07:00:35;;;;;;;44.30;24.08;;;;;;;7.39;42.55;102250.56;5062995;28;20055;-76
2022/03/19 07:03:20;;;;;;;46.13;26.48;;;;;;;7.37;42.38;102253.97;5063167;28;20413;-76
2022/03/19 07:06:05;;;;;;;52.42;25.23;;;;;;;6.86;43.76;102254.25;5062924;28;20044;-76
2022/03/19 07:08:50;;;;;;;51.33;28.40;;;;;;;6.65;43.02;102262.34;5077483;28;20462;-76
2022/03/19 07:11:37;;;;;;;45.33;26.23;;;;;;;7.50;42.44;102256.06;5077528;28;20041;-76
2022/03/19 07:14:22;;;;;;;53.33;25.52;;;;;;;7.55;40.79;102254.47;5063025;28;20413;-76
2022/03/19 07:17:07;;;;;;;43.00;24.20;;;;;;;6.94;41.06;102265.81;5077989;28;20041;-76
2022/03/19 07:19:52;;;;;;;41.88;24.48;;;;;;;7.67;41.53;102252.19;5062417;28;20067;-76
2022/03/19 07:23:00;;;;;;;45.22;24.38;;;;;;;8.20;39.87;102259.53;5077304;28;20384;-76
2022/03/19 07:25:44;;;;;;;51.30;25.52;;;;;;;8.53;40.27;102264.69;5048153;28;20070;-77
2022/03/19 07:28:29;;;;;;;42.42;24.13;;;;;;;8.15;39.20;102267.25;5077074;28;20353;-76
2022/03/19 07:31:13;;;;;;;47.35;26.63;;;;;;;7.95;37.82;102264.16;5062853;28;20429;-76
2022/03/19 07:33:58;;;;;;;42.55;24.80;;;;;;;7.56;39.72;102279.69;5062378;28;20041;-76
2022/03/19 07:36:44;;;;;;;46.00;23.60;;;;;;;7.99;39.84;102272.94;5062318;28;20048;-76
2022/03/19 07:39:28;;;;;;;40.47;21.92;;;;;;;8.59;38.36;102266.56;5077827;28;20090;-76
2022/03/19 07:42:12;;;;;;;38.22;21.33;;;;;;;8.43;37.76;102279.28;5047933;28;20074;-76
2022/03/19 07:44:56;;;;;;;37.97;21.40;;;;;;;8.26;37.59;102274.47;5048000;28;20063;-76
2022/03/19 07:47:41;;;;;;;39.25;21.30;;;;;;;8.79;38.02;102280.94;5061988;28;20049;-76
2022/03/19 07:50:25;;;;;;;33.75;20.63;;;;;;;8.76;37.77;102280.88;5062004;28;20059;-76
2022/03/19 07:53:10;;;;;;;34.33;19.67;;;;;;;8.80;37.44;102287.03;5058984;28;20072;-76
2022/03/19 07:55:55;;;;;;;39.25;23.48;;;;;;;8.91;36.67;102295.13;5076418;28;20036;-77
2022/03/19 07:58:40;;;;;;;39.33;22.98;;;;;;;8.59;37.34;102287.47;5047067;28;20041;-76
2022/03/19 08:01:25;;;;;;;39.83;22.60;;;;;;;8.80;37.72;102297.50;5062247;28;20044;-76
2022/03/19 08:04:09;;;;;;;37.03;20.50;;;;;;;8.82;37.88;102301.03;5062195;28;20417;-76
2022/03/19 08:06:55;;;;;;;35.20;19.63;;;;;;;9.33;36.94;102285.53;5062129;28;20045;-76
2022/03/19 08:09:39;;;;;;;34.55;20.15;;;;;;;9.69;36.43;102294.91;5061861;28;20060;-76
2022/03/19 08:12:26;;;;;;;30.48;18.73;;;;;;;9.93;35.39;102288.34;5048093;28;20417;-76
2022/03/19 08:15:10;;;;;;;34.95;17.88;;;;;;;9.73;35.32;102291.50;5061978;28;20044;-76
2022/03/19 08:17:55;;;;;;;33.08;18.80;;;;;;;9.81;34.63;102282.06;5061636;28;20049;-76
2022/03/19 08:20:39;;;;;;;28.27;17.75;;;;;;;9.55;34.44;102288.53;5061436;28;20044;-77
2022/03/19 08:23:24;;;;;;;27.33;16.88;;;;;;;9.25;34.28;102297.56;5061604;28;20055;-76
2022/03/19 08:26:09;;;;;;;36.90;19.67;;;;;;;9.62;34.90;102298.28;5061007;28;20063;-77
2022/03/19 08:28:53;;;;;;;28.77;18.77;;;;;;;9.22;34.45;102300.09;5061331;28;20047;-77
2022/03/19 08:31:38;;;;;;;64.90;32.25;;;;;;;9.22;35.32;102297.50;5076079;28;20428;-77
2022/03/19 08:34:22;;;;;;;31.88;19.30;;;;;;;9.30;34.33;102303.78;5061796;28;20040;-77
2022/03/19 08:37:07;;;;;;;25.73;15.90;;;;;;;9.73;34.15;102303.69;5061454;28;20040;-77
2022/03/19 08:42:56;;;;;;;31.05;18.00;;;;;;;9.88;33.79;102301.34;5076503;28;20063;-77
2022/03/19 08:45:40;;;;;;;28.58;16.73;;;;;;;9.64;34.38;102301.78;5047124;28;20052;-77
2022/03/19 08:48:25;;;;;;;30.95;17.42;;;;;;;9.94;33.45;102301.44;5047289;28;20055;-77
2022/03/19 08:54:19;;;;;;;25.77;15.98;;;;;;;9.72;32.63;102307.19;5076188;28;20033;-77
2022/03/19 08:57:04;;;;;;;26.15;16.05;;;;;;;9.72;32.62;102300.22;5061276;28;20098;-77
2022/03/19 08:59:49;;;;;;;28.88;15.95;;;;;;;10.07;33.77;102306.06;5076074;28;20123;-93
2022/03/19 09:02:34;;;;;;;27.90;15.35;;;;;;;10.01;32.41;102298.09;5076069;28;20036;-91
2022/03/19 09:05:20;;;;;;;23.70;14.65;;;;;;;10.11;32.57;102295.59;5061358;28;20427;-89
2022/03/19 09:08:04;;;;;;;24.40;14.35;;;;;;;9.94;31.67;102287.47;5061638;28;20040;-88
2022/03/19 09:10:48;;;;;;;23.90;14.20;;;;;;;9.87;31.28;102294.34;5078268;28;20060;-95
2022/03/19 09:13:36;;;;;;;22.63;13.23;;;;;;;9.80;30.68;102295.09;5065432;28;20040;-93
2022/03/19 09:16:20;;;;;;;25.67;14.30;;;;;;;9.56;31.27;102295.53;5066266;28;20379;-87
2022/03/19 09:19:05;;;;;;;21.77;13.27;;;;;;;10.15;30.38;102292.19;5065369;28;20078;-92
2022/03/19 09:21:49;;;;;;;24.15;14.07;;;;;;;10.12;30.96;102294.75;5050763;28;20068;-91
2022/03/19 09:24:34;;;;;;;30.30;15.02;;;;;;;9.96;31.19;102296.25;5065146;28;20045;-94
2022/03/19 09:27:19;;;;;;;23.05;13.05;;;;;;;10.04;30.40;102284.13;5079806;28;20040;-91
2022/03/19 09:30:04;;;;;;;19.70;12.80;;;;;;;9.92;29.34;102292.69;5064559;28;20475;-92
2022/03/19 09:32:48;;;;;;;24.75;13.68;;;;;;;10.08;30.28;102283.38;5079469;28;20041;-89
2022/03/19 09:35:33;;;;;;;28.95;12.80;;;;;;;9.60;30.14;102298.22;5079834;28;20044;-92
2022/03/19 09:38:18;;;;;;;22.42;13.18;;;;;;;9.57;30.34;102297.28;5079413;28;20107;-92
2022/03/19 09:41:03;;;;;;;22.75;12.07;;;;;;;10.00;29.90;102293.69;5064732;28;20354;-91
2022/03/19 09:43:47;;;;;;;20.38;13.18;;;;;;;9.75;29.34;102294.13;5079285;28;20509;-91
2022/03/19 09:46:31;;;;;;;32.95;18.98;;;;;;;9.76;30.53;102259.25;5050409;28;20052;-89
2022/03/19 09:49:16;;;;;;;43.03;24.73;;;;;;;10.20;29.45;102295.75;5064928;28;20048;-91
2022/03/19 09:52:02;;;;;;;49.33;31.17;;;;;;;9.84;29.06;102286.44;5079457;28;20048;-88
2022/03/19 09:54:47;;;;;;;30.65;19.73;;;;;;;9.86;28.08;102294.31;5063666;28;20040;-90
2022/03/19 09:57:31;;;;;;;23.27;12.07;;;;;;;10.08;29.08;102291.22;5049830;28;20055;-89
2022/03/19 10:00:16;;;;;;;23.85;13.43;;;;;;;10.04;29.25;102284.13;5049597;28;20044;-89
2022/03/19 10:03:03;;;;;;;20.17;12.50;;;;;;;10.33;29.91;102291.63;5064510;28;20379;-89
2022/03/19 10:08:58;;;;;;;20.80;12.75;;;;;;;10.51;28.57;102297.16;5079302;28;20045;-90
2022/03/19 10:11:48;;;;;;;21.65;12.80;;;;;;;10.50;29.19;102304.13;5079255;28;20078;-89
2022/03/19 10:14:32;;;;;;;18.25;12.32;;;;;;;10.33;28.12;102287.25;5063685;28;20040;-90
2022/03/19 10:17:28;;;;;;;23.23;13.02;;;;;;;10.69;27.78;102296.50;5049779;28;20040;-91
2022/03/19 10:20:13;;;;;;;21.25;12.30;;;;;;;10.58;28.59;102290.25;5078980;28;20384;-90
2022/03/19 10:22:57;;;;;;;19.73;12.60;;;;;;;9.96;28.16;102288.38;5076282;28;20620;-90
2022/03/19 10:25:44;;;;;;;19.80;12.00;;;;;;;10.38;29.57;102290.84;5076376;28;20060;-88
2022/03/19 10:28:30;;;;;;;22.10;13.48;;;;;;;10.57;28.24;102293.75;5061771;28;20040;-91
2022/03/19 10:31:50;;;;;;;72.55;37.65;;;;;;;10.52;28.77;102288.41;5076531;28;20392;-91
2022/03/19 10:34:35;;;;;;;34.92;21.05;;;;;;;10.76;28.83;102280.91;5061549;28;20448;-87
2022/03/19 10:37:41;;;;;;;28.00;15.27;;;;;;;10.38;27.75;102277.75;5047929;28;20082;-90
2022/03/19 10:40:37;;;;;;;18.98;12.88;;;;;;;10.53;29.70;102291.06;5048123;28;20098;-83
2022/03/19 10:43:23;;;;;;;21.60;13.23;;;;;;;10.57;28.19;102278.00;5049199;28;20040;-83
2022/03/19 10:46:07;;;;;;;19.42;12.15;;;;;;;10.89;28.52;102283.69;5063113;28;20045;-81
2022/03/19 10:48:54;;;;;;;22.35;13.57;;;;;;;10.76;28.31;102270.41;5063174;28;20067;-82
2022/03/19 10:51:40;;;;;;;17.05;11.75;;;;;;;11.32;28.40;102268.47;5077855;28;20041;-83
2022/03/19 10:54:25;;;;;;;27.50;12.88;;;;;;;11.11;28.60;102271.69;5077815;28;20079;-83
2022/03/19 10:57:09;;;;;;;20.60;11.93;;;;;;;10.83;28.53;102270.50;5078293;28;20050;-83
2022/03/19 10:59:54;;;;;;;19.65;11.10;;;;;;;11.12;28.15;102269.13;5077672;28;20476;-82
2022/03/19 11:02:45;;;;;;;19.83;11.40;;;;;;;10.89;28.05;102262.72;5063244;28;20067;-83
2022/03/19 11:05:33;;;;;;;24.77;15.80;;;;;;;11.19;27.41;102247.31;5062742;28;20037;-83
2022/03/19 11:08:20;;;;;;;20.30;12.13;;;;;;;11.21;26.98;102253.47;5048629;28;20040;-83
2022/03/19 11:11:14;;;;;;;19.98;12.20;;;;;;;11.06;27.37;102244.56;5078036;28;20063;-90
2022/03/19 11:14:01;;;;;;;19.45;12.55;;;;;;;11.00;28.14;102261.97;5048498;28;20055;-90
2022/03/19 11:17:23;;;;;;;17.35;11.77;;;;;;;11.37;27.24;102245.75;5048520;28;20353;-89
2022/03/19 11:20:05;;;;;;;21.38;10.90;;;;;;;11.44;27.06;102234.47;5077595;28;20045;-92
2022/03/19 11:22:53;;;;;;;20.70;12.38;;;;;;;10.99;26.97;102234.00;5062602;28;20040;-89
2022/03/19 11:25:50;;;;;;;18.15;10.75;;;;;;;10.93;26.78;102238.28;5048654;28;20437;-90
2022/03/19 11:28:35;;;;;;;16.77;9.88;;;;;;;11.43;26.54;102232.69;5048432;28;20090;-91
2022/03/19 11:31:30;;;;;;;23.38;12.15;;;;;;;11.43;27.82;102227.44;5077644;28;20068;-89
2022/03/19 11:34:16;;;;;;;18.10;11.63;;;;;;;11.58;26.76;102224.97;5061324;28;20059;-87
2022/03/19 11:37:04;;;;;;;22.70;10.98;;;;;;;11.53;25.83;102224.03;5077171;28;20437;-89
2022/03/19 11:40:13;;;;;;;16.23;10.05;;;;;;;11.73;26.63;102232.09;5062049;28;20381;-86
2022/03/19 11:43:00;;;;;;;17.67;10.50;;;;;;;11.99;26.92;102235.00;5048190;28;20110;-90
2022/03/19 11:46:05;;;;;;;28.85;15.57;;;;;;;11.88;26.36;102229.63;5060990;28;20044;-85
2022/03/19 11:48:51;;;;;;;20.40;11.63;;;;;;;11.89;26.65;102217.38;5062119;28;20041;-83
2022/03/19 11:51:39;;;;;;;28.13;15.93;;;;;;;11.86;26.90;102227.84;5047889;28;20040;-82
2022/03/19 11:54:24;;;;;;;24.27;12.57;;;;;;;12.00;25.86;102223.59;5062976;28;20052;-81
2022/03/19 11:57:09;;;;;;;25.45;11.70;;;;;;;11.97;26.08;102223.59;5061782;28;20059;-82
2022/03/19 11:59:59;;;;;;;18.50;10.15;;;;;;;11.88;25.99;102215.63;5061852;28;20502;-80
2022/03/19 12:03:05;;;;;;;26.70;14.18;;;;;;;11.42;25.69;102213.47;5076837;28;20063;-80
2022/03/19 12:05:50;;;;;;;20.65;11.35;;;;;;;12.06;26.06;102218.41;5062244;28;20036;-82
2022/03/19 12:08:48;;;;;;;24.30;11.57;;;;;;;12.01;26.17;102204.34;5061690;28;20439;-80
2022/03/19 12:11:35;;;;;;;24.40;13.02;;;;;;;11.86;26.77;102204.22;5076532;28;20048;-81
2022/03/19 12:14:22;;;;;;;26.02;16.67;;;;;;;12.05;26.25;102214.00;5076825;28;20055;-81
2022/03/19 12:17:23;;;;;;;23.45;11.93;;;;;;;12.19;26.91;102211.47;5047498;28;20036;-81
2022/03/19 12:20:08;;;;;;;25.40;14.77;;;;;;;12.46;26.03;102209.88;5061498;28;20369;-82
2022/03/19 12:22:55;;;;;;;32.63;17.25;;;;;;;12.23;26.54;102212.38;5076218;28;20041;-82
2022/03/19 12:25:49;;;;;;;21.05;14.48;;;;;;;12.57;26.50;102208.16;5061505;28;20055;-81
2022/03/19 12:28:33;;;;;;;21.92;11.25;;;;;;;12.25;25.50;102208.00;5047605;28;20048;-83
2022/03/19 12:31:17;;;;;;;23.27;15.15;;;;;;;12.35;25.99;102189.69;5061380;28;20041;-85
2022/03/19 12:34:03;;;;;;;21.48;13.38;;;;;;;12.28;25.94;102214.13;5077400;28;20060;-84
2022/03/19 12:36:48;;;;;;;23.15;12.70;;;;;;;12.32;26.02;102199.28;5076508;28;20059;-89
2022/03/19 12:39:32;;;;;;;23.25;11.80;;;;;;;12.29;25.78;102209.78;5047407;28;20044;-83
2022/03/19 12:42:32;;;;;;;26.05;14.18;;;;;;;12.21;26.44;102216.72;5061838;28;20306;-80
2022/03/19 12:45:16;;;;;;;25.00;14.10;;;;;;;12.23;25.85;102207.13;5075691;28;20036;-82
2022/03/19 12:48:06;;;;;;;20.15;12.40;;;;;;;12.36;25.47;102217.72;5061748;28;20079;-85
2022/03/19 12:50:54;;;;;;;42.42;21.30;;;;;;;11.88;26.01;102208.63;5061207;28;20037;-83
2022/03/19 12:53:41;;;;;;;44.83;22.92;;;;;;;11.12;26.43;102203.53;5061216;28;20079;-84
2022/03/19 12:56:28;;;;;;;40.67;22.50;;;;;;;11.40;26.89;102198.56;5074868;28;20040;-84